Time;durP1;ratioP1;P1;durP2;ratioP2;P2;SDS_P1;SDS_P2;PMS_P1;PMS_P2;Temp;Humidity;BMP_temperature;BMP_pressure;BME280_temperature;BME280_humidity;BME280_pressure;Samples;Min_cycle;Max_cycle;Signal;HPM_P1;HPM_P2
2023/01/12 00:01:22;;;;;;;11.23;1.97;;;8.50;99.90;;;;;;5062284;28;20222;-83
2023/01/12 00:03:48;;;;;;;11.87;2.00;;;8.40;99.90;;;;;;5061943;28;20190;-83
2023/01/12 00:06:15;;;;;;;14.03;2.13;;;8.50;99.90;;;;;;5062695;28;20179;-83
2023/01/12 00:08:40;;;;;;;6.57;1.60;;;8.50;99.90;;;;;;5062708;28;20199;-84
2023/01/12 00:11:06;;;;;;;9.17;2.17;;;8.50;99.90;;;;;;5064183;28;20187;-83
2023/01/12 00:13:33;;;;;;;8.03;1.87;;;8.50;99.90;;;;;;5063220;28;20171;-83
2023/01/12 00:18:45;;;;;;;10.43;1.83;;;8.50;99.90;;;;;;5063174;28;20167;-83
2023/01/12 00:21:12;;;;;;;6.60;1.60;;;8.50;99.90;;;;;;5061723;28;20254;-83
2023/01/12 00:23:38;;;;;;;8.70;2.40;;;8.50;99.90;;;;;;5061620;28;20172;-83
2023/01/12 00:26:06;;;;;;;9.20;1.93;;;8.60;99.90;;;;;;5062286;28;20662;-83
2023/01/12 00:28:31;;;;;;;9.77;1.70;;;8.50;99.90;;;;;;5061702;28;20179;-83
2023/01/12 00:31:01;;;;;;;9.73;1.70;;;8.50;99.90;;;;;;5061876;28;20587;-83
2023/01/12 00:33:27;;;;;;;10.23;2.20;;;8.50;99.90;;;;;;5061733;28;20183;-82
2023/01/12 00:35:52;;;;;;;5.90;1.57;;;8.50;99.90;;;;;;5062538;28;20180;-83
2023/01/12 00:38:18;;;;;;;9.80;2.13;;;8.50;99.90;;;;;;5061214;28;20186;-83
2023/01/12 00:40:43;;;;;;;7.40;1.40;;;8.50;99.90;;;;;;5061060;28;20217;-83
2023/01/12 00:45:53;;;;;;;9.37;1.97;;;8.50;99.90;;;;;;5062153;28;20170;-83
2023/01/12 00:48:18;;;;;;;8.20;2.10;;;8.50;99.90;;;;;;5060805;28;20172;-83
2023/01/12 00:50:47;;;;;;;9.10;2.13;;;8.60;99.90;;;;;;5062963;28;20188;-83
2023/01/12 00:53:12;;;;;;;10.40;1.80;;;8.50;99.90;;;;;;5061621;28;20359;-83
2023/01/12 00:55:38;;;;;;;8.87;1.60;;;8.60;99.90;;;;;;5063302;28;20175;-83
2023/01/12 00:58:04;;;;;;;6.60;1.70;;;8.60;99.90;;;;;;5061962;28;20222;-82
2023/01/12 01:00:29;;;;;;;9.67;1.67;;;8.60;99.90;;;;;;5060221;28;20207;-83
2023/01/12 01:02:55;;;;;;;7.77;1.97;;;8.60;99.90;;;;;;5061979;28;20175;-83
2023/01/12 01:05:20;;;;;;;8.57;1.53;;;8.60;99.90;;;;;;5061169;28;20172;-83
2023/01/12 01:07:46;;;;;;;11.87;2.20;;;8.60;99.90;;;;;;5060143;28;20259;-83
2023/01/12 01:10:13;;;;;;;6.40;1.80;;;8.60;99.90;;;;;;5061212;28;20167;-84
2023/01/12 01:12:40;;;;;;;8.90;1.97;;;8.60;99.90;;;;;;5062302;28;20253;-83
2023/01/12 01:15:06;;;;;;;9.37;1.90;;;8.60;99.90;;;;;;5062280;28;20199;-83
2023/01/12 01:17:31;;;;;;;11.50;1.90;;;8.70;99.90;;;;;;5060427;28;20172;-83
2023/01/12 01:19:57;;;;;;;8.27;2.00;;;8.70;99.90;;;;;;5060852;28;20560;-84
2023/01/12 01:22:23;;;;;;;7.50;2.20;;;8.70;99.90;;;;;;5059933;28;20168;-83
2023/01/12 01:24:48;;;;;;;12.47;1.90;;;8.70;99.90;;;;;;5059096;28;20172;-83
2023/01/12 01:27:14;;;;;;;6.40;1.83;;;8.70;99.90;;;;;;5061060;28;20168;-83
2023/01/12 01:29:39;;;;;;;7.67;2.13;;;8.80;99.90;;;;;;5059495;28;20242;-83
2023/01/12 01:32:05;;;;;;;8.03;2.63;;;8.70;99.90;;;;;;5059166;28;20195;-83
2023/01/12 01:34:31;;;;;;;11.67;2.47;;;8.80;99.90;;;;;;5061362;28;20179;-83
2023/01/12 01:36:58;;;;;;;9.60;2.20;;;8.80;99.90;;;;;;5059385;28;20182;-83
2023/01/12 01:39:23;;;;;;;8.67;2.00;;;8.80;99.90;;;;;;5058475;28;20181;-83
2023/01/12 01:41:49;;;;;;;8.37;2.23;;;8.80;99.90;;;;;;5058827;28;20207;-83
2023/01/12 01:44:30;;;;;;;9.77;1.83;;;8.80;99.90;;;;;;5058810;28;20264;-84
2023/01/12 01:47:37;;;;;;;13.90;2.50;;;8.80;99.90;;;;;;5059713;28;20167;-83
2023/01/12 01:50:12;;;;;;;8.57;2.07;;;9.00;99.90;;;;;;5061159;28;20171;-84
2023/01/12 01:52:42;;;;;;;12.30;2.17;;;9.00;99.90;;;;;;5058649;28;20168;-84
2023/01/12 01:55:28;;;;;;;9.83;2.23;;;9.00;99.90;;;;;;5059506;28;20243;-83
2023/01/12 01:58:16;;;;;;;10.60;2.30;;;8.90;99.90;;;;;;5061347;28;20172;-83
2023/01/12 02:00:43;;;;;;;9.23;1.70;;;9.00;99.90;;;;;;5056500;28;20242;-84
2023/01/12 02:03:10;;;;;;;9.10;2.20;;;9.00;99.90;;;;;;5059513;28;20172;-83
2023/01/12 02:05:39;;;;;;;10.67;2.30;;;9.00;99.90;;;;;;5060039;28;20171;-84
2023/01/12 02:08:33;;;;;;;11.80;2.43;;;9.00;99.90;;;;;;5060891;28;20265;-83
2023/01/12 02:11:00;;;;;;;11.10;1.90;;;9.00;99.90;;;;;;5060888;28;20310;-83
2023/01/12 02:16:24;;;;;;;10.53;1.90;;;9.00;99.90;;;;;;5061508;28;20213;-84
2023/01/12 02:19:18;;;;;;;10.37;2.17;;;9.00;99.90;;;;;;5060446;28;20255;-83
2023/01/12 02:21:54;;;;;;;12.23;2.30;;;8.90;99.90;;;;;;5058822;28;20286;-83
2023/01/12 02:24:50;;;;;;;10.07;2.20;;;8.90;99.90;;;;;;5061734;28;20178;-84
2023/01/12 02:27:26;;;;;;;6.87;1.97;;;9.00;99.90;;;;;;5059697;28;20183;-83
2023/01/12 02:30:12;;;;;;;11.50;2.07;;;9.00;99.90;;;;;;5058805;28;20179;-83
2023/01/12 02:33:05;;;;;;;14.60;1.90;;;8.90;99.90;;;;;;5059267;28;20201;-83
2023/01/12 02:35:47;;;;;;;11.43;2.60;;;8.90;99.90;;;;;;5060554;28;20186;-84
2023/01/12 02:38:46;;;;;;;10.63;2.50;;;8.90;99.90;;;;;;5059498;28;20678;-83
2023/01/12 02:44:34;;;;;;;9.93;2.07;;;8.90;99.90;;;;;;5062285;28;20166;-83
2023/01/12 02:47:03;;;;;;;11.90;2.13;;;8.90;99.90;;;;;;5060595;28;20195;-83
2023/01/12 02:49:34;;;;;;;10.53;2.17;;;8.90;99.90;;;;;;5059926;28;20235;-83
2023/01/12 02:52:07;;;;;;;10.07;1.70;;;8.90;99.90;;;;;;5059602;28;20218;-84
2023/01/12 02:54:35;;;;;;;14.10;2.80;;;8.90;99.90;;;;;;5061191;28;20159;-83
2023/01/12 02:57:04;;;;;;;9.20;2.20;;;8.90;99.90;;;;;;5060911;28;20179;-83
2023/01/12 02:59:37;;;;;;;12.13;2.17;;;8.90;99.90;;;;;;5061983;28;20187;-83
2023/01/12 03:02:13;;;;;;;12.50;2.23;;;8.90;99.90;;;;;;5061637;28;20643;-83
2023/01/12 03:04:40;;;;;;;10.03;2.10;;;8.90;99.90;;;;;;5063780;28;20148;-83
2023/01/12 03:07:27;;;;;;;11.50;2.20;;;8.80;99.90;;;;;;5061421;28;20172;-83
2023/01/12 03:10:19;;;;;;;11.27;2.47;;;8.80;99.90;;;;;;5062035;28;20258;-83
2023/01/12 03:12:50;;;;;;;8.20;2.40;;;8.80;99.90;;;;;;5061759;28;20164;-83
2023/01/12 03:15:17;;;;;;;10.10;2.50;;;8.80;99.90;;;;;;5064531;28;20537;-84
2023/01/12 03:17:57;;;;;;;12.73;3.47;;;8.90;99.90;;;;;;5062784;28;20176;-83
2023/01/12 03:20:44;;;;;;;10.63;2.60;;;8.80;99.90;;;;;;5063522;28;20221;-83
2023/01/12 03:23:20;;;;;;;12.77;2.40;;;8.80;99.90;;;;;;5063682;28;20148;-84
2023/01/12 03:25:49;;;;;;;9.43;2.03;;;8.80;99.90;;;;;;5063818;28;20226;-83
2023/01/12 03:28:18;;;;;;;11.00;2.17;;;8.80;99.90;;;;;;5063700;28;20217;-83
2023/01/12 03:30:53;;;;;;;11.23;2.40;;;8.80;99.90;;;;;;5064790;28;20741;-83
2023/01/12 03:33:19;;;;;;;15.50;2.30;;;8.80;99.90;;;;;;5065504;28;20171;-83
2023/01/12 03:36:04;;;;;;;5.73;1.73;;;8.80;99.90;;;;;;5068407;28;20180;-83
2023/01/12 03:38:36;;;;;;;7.93;1.80;;;8.80;99.90;;;;;;5074425;28;20563;-84
2023/01/12 03:41:33;;;;;;;11.43;2.00;;;8.80;99.90;;;;;;5074431;28;20267;-83
2023/01/12 03:44:03;;;;;;;12.73;2.13;;;8.80;99.90;;;;;;5056957;28;20192;-83
2023/01/12 03:46:43;;;;;;;9.40;2.20;;;8.80;99.90;;;;;;5058807;28;20168;-83
2023/01/12 03:49:43;;;;;;;11.43;2.47;;;8.80;99.90;;;;;;5060301;28;20148;-83
2023/01/12 03:52:11;;;;;;;10.53;1.93;;;8.80;99.90;;;;;;5057863;28;20286;-83
2023/01/12 03:54:37;;;;;;;10.47;2.20;;;8.80;99.90;;;;;;5058634;28;20678;-84
2023/01/12 03:57:03;;;;;;;10.33;2.30;;;8.80;99.90;;;;;;5058709;28;20175;-83
2023/01/12 03:59:29;;;;;;;8.13;2.00;;;8.80;99.90;;;;;;5057832;28;20172;-83
2023/01/12 04:01:55;;;;;;;10.13;2.30;;;8.80;99.90;;;;;;5057498;28;20223;-83
2023/01/12 04:04:21;;;;;;;11.37;1.93;;;8.80;99.90;;;;;;5063546;28;20168;-83
2023/01/12 04:06:47;;;;;;;8.20;2.00;;;8.80;99.90;;;;;;5062693;28;20581;-83
2023/01/12 04:09:12;;;;;;;12.13;2.17;;;8.80;99.90;;;;;;5061299;28;20182;-83
2023/01/12 04:14:22;;;;;;;10.67;1.90;;;8.80;99.90;;;;;;5063376;28;20162;-83
2023/01/12 04:16:47;;;;;;;10.87;2.33;;;8.80;99.90;;;;;;5063439;28;20200;-83
2023/01/12 04:19:13;;;;;;;10.77;2.20;;;8.80;99.90;;;;;;5063846;28;20183;-83
2023/01/12 04:24:23;;;;;;;10.20;1.47;;;8.90;99.90;;;;;;5061395;28;20166;-83
2023/01/12 04:26:48;;;;;;;5.93;2.20;;;8.80;99.90;;;;;;5057612;28;20647;-83
2023/01/12 04:29:14;;;;;;;10.73;2.47;;;8.90;99.90;;;;;;5062475;28;20235;-83
2023/01/12 04:31:39;;;;;;;5.40;1.53;;;8.80;99.90;;;;;;5061966;28;20206;-83
2023/01/12 04:34:05;;;;;;;6.57;1.63;;;8.90;99.90;;;;;;5062049;28;20670;-83
2023/01/12 04:36:30;;;;;;;10.50;1.90;;;8.90;99.90;;;;;;5062793;28;20172;-83
2023/01/12 04:38:56;;;;;;;13.83;1.67;;;8.90;99.90;;;;;;5063024;28;20172;-83
2023/01/12 04:41:21;;;;;;;12.33;1.80;;;8.90;99.90;;;;;;5064288;28;20214;-83
2023/01/12 04:43:47;;;;;;;10.07;1.93;;;8.90;99.90;;;;;;5064962;28;20183;-83
2023/01/12 04:46:12;;;;;;;6.03;1.53;;;8.90;99.90;;;;;;5063360;28;20182;-83
2023/01/12 04:48:39;;;;;;;8.50;2.03;;;8.90;99.90;;;;;;5062761;28;20187;-83
2023/01/12 04:51:05;;;;;;;6.70;1.67;;;8.90;99.90;;;;;;5063815;28;20214;-82
2023/01/12 04:53:30;;;;;;;5.97;1.40;;;8.80;99.90;;;;;;5064449;28;20175;-83
2023/01/12 04:55:57;;;;;;;5.80;1.53;;;8.80;99.90;;;;;;5062757;28;20174;-82
2023/01/12 04:58:23;;;;;;;6.07;1.50;;;8.80;99.90;;;;;;5062238;28;20834;-82
2023/01/12 05:00:48;;;;;;;8.50;1.40;;;8.80;99.90;;;;;;5062161;28;20204;-82
2023/01/12 05:03:14;;;;;;;10.03;1.77;;;8.80;99.90;;;;;;5064705;28;20171;-82
2023/01/12 05:05:40;;;;;;;6.70;1.53;;;8.80;99.90;;;;;;5062753;28;20175;-82
2023/01/12 05:10:55;;;;;;;3.93;1.00;;;8.80;99.90;;;;;;5063852;28;20233;-82
2023/01/12 05:13:22;;;;;;;6.30;1.43;;;8.80;99.90;;;;;;5062355;28;20179;-82
2023/01/12 05:15:48;;;;;;;6.73;1.40;;;8.80;99.90;;;;;;5061490;28;20210;-82
2023/01/12 05:18:14;;;;;;;10.77;1.97;;;8.80;99.90;;;;;;5061155;28;20180;-82
2023/01/12 05:20:40;;;;;;;5.30;1.80;;;8.80;99.90;;;;;;5062028;28;20206;-82
2023/01/12 05:23:05;;;;;;;4.87;1.40;;;8.80;99.90;;;;;;5062235;28;20176;-83
2023/01/12 05:25:31;;;;;;;5.90;1.50;;;8.80;99.90;;;;;;5059940;28;20182;-82
2023/01/12 05:27:58;;;;;;;4.70;1.53;;;8.80;99.90;;;;;;5060617;28;20605;-82
2023/01/12 05:30:27;;;;;;;7.07;1.10;;;8.70;99.90;;;;;;5062544;28;20198;-82
2023/01/12 05:32:53;;;;;;;4.47;1.03;;;8.70;99.90;;;;;;5061736;28;20226;-82
2023/01/12 05:35:19;;;;;;;10.13;1.50;;;8.70;99.90;;;;;;5061943;28;20537;-82
2023/01/12 05:37:44;;;;;;;4.40;1.20;;;8.80;99.90;;;;;;5060519;28;20175;-82
2023/01/12 05:40:11;;;;;;;4.93;1.60;;;8.70;99.90;;;;;;5060130;28;20202;-84
2023/01/12 05:45:21;;;;;;;6.83;1.03;;;8.70;99.90;;;;;;5061780;28;20213;-84
2023/01/12 05:47:54;;;;;;;4.80;1.63;;;8.70;99.90;;;;;;5060104;28;20179;-82
2023/01/12 05:50:20;;;;;;;8.93;1.70;;;8.70;99.90;;;;;;5063844;28;20202;-83
2023/01/12 05:52:45;;;;;;;5.33;1.40;;;8.70;99.90;;;;;;5066148;28;20239;-83
2023/01/12 05:55:11;;;;;;;7.37;1.17;;;8.70;99.90;;;;;;5065779;28;20195;-83
2023/01/12 05:57:36;;;;;;;8.87;1.40;;;8.70;99.90;;;;;;5069788;28;20615;-83
2023/01/12 06:00:02;;;;;;;5.77;1.00;;;8.70;99.90;;;;;;5068222;28;20195;-83
2023/01/12 06:02:28;;;;;;;5.60;1.47;;;8.70;99.90;;;;;;5067456;28;20179;-83
2023/01/12 06:04:53;;;;;;;4.60;1.20;;;8.70;99.90;;;;;;5063882;28;20181;-83
2023/01/12 06:07:19;;;;;;;4.77;0.87;;;8.60;99.90;;;;;;5066435;28;20190;-83
2023/01/12 06:09:44;;;;;;;6.57;1.67;;;8.60;99.90;;;;;;5065600;28;20175;-84
2023/01/12 06:14:55;;;;;;;3.10;0.90;;;8.70;99.90;;;;;;5067448;28;20239;-84
2023/01/12 06:17:21;;;;;;;8.57;1.30;;;8.70;99.90;;;;;;5067076;28;20168;-84
2023/01/12 06:19:46;;;;;;;4.83;1.07;;;8.70;99.90;;;;;;5067663;28;20171;-84
2023/01/12 06:22:12;;;;;;;7.50;2.07;;;8.60;99.90;;;;;;5065217;28;20238;-83
2023/01/12 06:24:37;;;;;;;5.47;1.53;;;8.60;99.90;;;;;;5061406;28;20262;-84
2023/01/12 06:27:03;;;;;;;5.47;1.03;;;8.60;99.90;;;;;;5058225;28;20274;-84
2023/01/12 06:29:28;;;;;;;12.80;1.50;;;8.60;99.90;;;;;;5058837;28;20555;-86
2023/01/12 06:31:54;;;;;;;7.80;1.13;;;8.60;99.90;;;;;;5059478;28;20214;-85
2023/01/12 06:34:19;;;;;;;8.30;1.63;;;8.60;99.90;;;;;;5057666;28;20202;-84
2023/01/12 06:36:45;;;;;;;5.57;1.17;;;8.60;99.90;;;;;;5057430;28;20176;-84
2023/01/12 06:39:11;;;;;;;7.50;1.40;;;8.60;99.90;;;;;;5055868;28;20180;-85
2023/01/12 06:44:21;;;;;;;5.63;0.97;;;8.60;99.90;;;;;;5057045;28;20159;-83
2023/01/12 06:46:47;;;;;;;8.53;1.70;;;8.60;99.90;;;;;;5055508;28;20551;-82
2023/01/12 06:49:15;;;;;;;8.57;1.80;;;8.60;99.90;;;;;;5057035;28;20560;-83
2023/01/12 06:51:41;;;;;;;7.43;1.43;;;8.70;99.90;;;;;;5058485;28;20578;-83
2023/01/12 06:54:06;;;;;;;11.80;2.27;;;8.70;99.90;;;;;;5059386;28;20179;-83
2023/01/12 06:56:32;;;;;;;5.83;1.20;;;8.80;99.90;;;;;;5058289;28;20191;-83
2023/01/12 06:58:57;;;;;;;7.27;1.60;;;8.70;99.90;;;;;;5060908;28;20201;-83
2023/01/12 07:01:25;;;;;;;8.33;1.40;;;8.70;99.90;;;;;;5060293;28;20628;-83
2023/01/12 07:03:51;;;;;;;5.40;1.00;;;8.70;99.90;;;;;;5060537;28;20210;-83
2023/01/12 07:06:17;;;;;;;6.33;1.37;;;8.70;99.90;;;;;;5061076;28;20172;-83
2023/01/12 07:08:43;;;;;;;4.43;1.10;;;8.70;99.90;;;;;;5060031;28;20262;-82
2023/01/12 07:11:11;;;;;;;4.97;1.20;;;8.70;99.90;;;;;;5059678;28;20209;-82
2023/01/12 07:13:37;;;;;;;9.00;1.70;;;8.80;99.90;;;;;;5060163;28;20179;-83
2023/01/12 07:16:03;;;;;;;7.13;1.73;;;8.80;99.90;;;;;;5060856;28;20199;-83
2023/01/12 07:18:29;;;;;;;7.60;1.80;;;8.80;99.90;;;;;;5059924;28;20614;-83
2023/01/12 07:20:55;;;;;;;8.53;1.60;;;8.80;99.90;;;;;;5061210;28;20285;-82
2023/01/12 07:23:21;;;;;;;7.13;1.50;;;8.90;99.90;;;;;;5061644;28;20199;-83
2023/01/12 07:25:46;;;;;;;5.00;1.33;;;8.90;99.90;;;;;;5064584;28;20172;-83
2023/01/12 07:28:12;;;;;;;7.80;1.70;;;9.00;99.90;;;;;;5073892;28;20179;-83
2023/01/12 07:30:37;;;;;;;2.87;1.00;;;8.90;99.90;;;;;;5072925;28;20226;-83
2023/01/12 07:33:08;;;;;;;8.33;1.13;;;9.00;99.90;;;;;;5064474;28;20183;-83
2023/01/12 07:35:34;;;;;;;7.53;1.80;;;9.00;99.90;;;;;;5059348;28;20225;-83
2023/01/12 07:37:59;;;;;;;4.07;1.13;;;9.10;99.90;;;;;;5061421;28;20586;-82
2023/01/12 07:40:25;;;;;;;7.93;1.60;;;9.10;99.90;;;;;;5062203;28;20207;-83
2023/01/12 07:43:12;;;;;;;5.10;1.17;;;9.80;99.90;;;;;;5062178;28;20670;-83
2023/01/12 07:45:38;;;;;;;5.97;1.33;;;9.10;99.90;;;;;;5060782;28;20206;-83
2023/01/12 07:48:04;;;;;;;4.63;1.00;;;9.10;99.90;;;;;;5063570;28;20167;-83
2023/01/12 07:50:30;;;;;;;4.77;1.10;;;9.20;99.90;;;;;;5061891;28;20278;-83
2023/01/12 07:53:00;;;;;;;6.47;1.23;;;9.20;99.90;;;;;;5063585;28;20586;-83
2023/01/12 07:55:25;;;;;;;4.97;1.43;;;9.20;99.90;;;;;;5062022;28;20183;-82
2023/01/12 07:58:02;;;;;;;6.33;1.03;;;9.30;99.90;;;;;;5061819;28;20171;-83
2023/01/12 08:00:29;;;;;;;7.10;1.27;;;9.30;99.90;;;;;;5061501;28;20230;-83
2023/01/12 08:03:01;;;;;;;4.33;1.20;;;9.30;99.90;;;;;;5061503;28;20182;-83
2023/01/12 08:05:27;;;;;;;3.47;1.37;;;9.40;99.90;;;;;;5062750;28;20185;-82
2023/01/12 08:07:53;;;;;;;6.07;1.70;;;9.40;99.90;;;;;;5062040;28;20186;-83
2023/01/12 08:10:19;;;;;;;5.77;0.93;;;9.40;99.90;;;;;;5061043;28;20199;-83
2023/01/12 08:12:44;;;;;;;5.57;1.50;;;9.40;99.90;;;;;;5062125;28;20183;-83
2023/01/12 08:15:11;;;;;;;4.53;1.07;;;9.40;99.90;;;;;;5062558;28;20179;-83
2023/01/12 08:17:43;;;;;;;8.00;0.97;;;9.40;99.90;;;;;;5061560;28;20202;-83
2023/01/12 08:20:20;;;;;;;4.67;1.20;;;9.40;99.90;;;;;;5062952;28;20190;-82
2023/01/12 08:22:50;;;;;;;3.13;1.00;;;9.50;99.90;;;;;;5063243;28;20229;-81
2023/01/12 08:25:25;;;;;;;7.93;1.40;;;9.40;99.90;;;;;;5060842;28;20225;-83
2023/01/12 08:27:55;;;;;;;4.23;1.00;;;9.50;99.90;;;;;;5061490;28;20293;-83
2023/01/12 08:30:23;;;;;;;5.83;0.93;;;9.50;99.90;;;;;;5063007;28;20192;-83
2023/01/12 08:32:49;;;;;;;3.10;0.83;;;9.50;99.90;;;;;;5063194;28;20176;-83
2023/01/12 08:35:20;;;;;;;3.63;0.90;;;9.50;99.90;;;;;;5062569;28;20222;-83
2023/01/12 08:37:45;;;;;;;5.13;1.10;;;9.50;99.90;;;;;;5062978;28;20623;-83
2023/01/12 08:40:13;;;;;;;5.73;1.20;;;9.60;99.90;;;;;;5061804;28;20198;-83
2023/01/12 08:42:38;;;;;;;3.63;1.00;;;9.60;99.90;;;;;;5060861;28;20176;-83
2023/01/12 08:45:06;;;;;;;1.80;0.80;;;9.60;99.90;;;;;;5062408;28;20167;-83
2023/01/12 08:47:32;;;;;;;3.03;1.00;;;9.70;99.90;;;;;;5062374;28;20163;-83
2023/01/12 08:49:59;;;;;;;2.33;0.60;;;9.70;99.90;;;;;;5062008;28;20532;-82
2023/01/12 08:52:28;;;;;;;2.63;1.00;;;9.70;99.90;;;;;;5061752;28;20221;-83
2023/01/12 08:54:54;;;;;;;6.60;1.20;;;9.70;99.90;;;;;;5061586;28;20546;-83
2023/01/12 08:57:20;;;;;;;2.53;0.97;;;9.70;99.90;;;;;;5062506;28;20176;-83
2023/01/12 08:59:45;;;;;;;1.63;0.70;;;9.80;99.90;;;;;;5060752;28;20182;-83
2023/01/12 09:02:12;;;;;;;4.33;0.80;;;9.80;99.90;;;;;;5062103;28;20191;-83
2023/01/12 09:04:39;;;;;;;2.80;1.03;;;9.80;99.90;;;;;;5061933;28;20168;-83
2023/01/12 09:07:06;;;;;;;2.33;1.20;;;9.80;99.90;;;;;;5061404;28;20181;-83
2023/01/12 09:09:31;;;;;;;5.07;1.00;;;9.80;99.90;;;;;;5062146;28;20175;-84
2023/01/12 09:11:57;;;;;;;2.10;0.53;;;9.90;99.90;;;;;;5060796;28;20663;-83
2023/01/12 09:14:24;;;;;;;3.87;0.87;;;9.90;99.90;;;;;;5060456;28;20187;-83
2023/01/12 09:16:50;;;;;;;2.33;0.70;;;9.90;99.90;;;;;;5061947;28;20179;-83
2023/01/12 09:19:15;;;;;;;1.33;0.80;;;9.90;99.90;;;;;;5061827;28;20176;-83
2023/01/12 09:21:42;;;;;;;1.50;0.60;;;9.90;99.90;;;;;;5060170;28;20217;-83
2023/01/12 09:24:09;;;;;;;2.20;0.77;;;10.00;99.90;;;;;;5060776;28;20176;-82
2023/01/12 09:26:40;;;;;;;1.97;1.00;;;10.00;99.90;;;;;;5061866;28;20666;-83
2023/01/12 09:29:07;;;;;;;2.83;0.70;;;10.00;99.90;;;;;;5062054;28;20164;-83
2023/01/12 09:31:34;;;;;;;5.43;1.00;;;10.00;99.90;;;;;;5059970;28;20683;-83
2023/01/12 09:34:00;;;;;;;2.83;0.70;;;10.00;99.90;;;;;;5060475;28;20179;-83
2023/01/12 09:36:28;;;;;;;4.80;0.80;;;10.00;99.90;;;;;;5060213;28;20213;-84
2023/01/12 09:38:54;;;;;;;4.83;0.90;;;10.00;99.90;;;;;;5061468;28;20183;-83
2023/01/12 09:47:38;;;;;;;4.50;0.90;;;10.10;99.90;;;;;;5061649;28;20190;-83
2023/01/12 09:50:18;;;;;;;1.23;0.60;;;10.20;99.90;;;;;;5058933;28;20557;-84
2023/01/12 09:52:45;;;;;;;4.57;1.43;;;10.30;99.90;;;;;;5061859;28;20174;-84
2023/01/12 09:55:20;;;;;;;3.83;0.60;;;10.30;99.90;;;;;;5059618;28;20171;-83
2023/01/12 09:58:03;;;;;;;4.20;0.60;;;10.30;99.90;;;;;;5061469;28;20163;-83
2023/01/12 10:00:28;;;;;;;2.77;0.70;;;10.30;99.90;;;;;;5060975;28;20208;-83
2023/01/12 10:03:05;;;;;;;3.33;1.00;;;10.40;99.90;;;;;;5059801;28;20175;-83
2023/01/12 10:05:45;;;;;;;2.17;0.67;;;10.40;99.90;;;;;;5059727;28;20168;-83
2023/01/12 10:08:39;;;;;;;3.00;0.73;;;10.30;99.90;;;;;;5061235;28;20151;-83
2023/01/12 10:11:31;;;;;;;5.53;1.20;;;10.40;99.90;;;;;;5048714;28;20215;-83
2023/01/12 10:14:08;;;;;;;3.30;0.93;;;10.40;99.90;;;;;;5060210;28;20543;-83
2023/01/12 10:16:51;;;;;;;3.33;0.90;;;10.40;99.90;;;;;;5059285;28;20183;-83
2023/01/12 10:19:24;;;;;;;1.77;0.80;;;10.50;99.90;;;;;;5060978;28;20168;-84
2023/01/12 10:21:51;;;;;;;3.13;0.80;;;10.40;99.90;;;;;;5058940;28;20273;-84
2023/01/12 10:24:20;;;;;;;3.03;1.00;;;10.40;99.90;;;;;;5057839;28;20171;-84
2023/01/12 10:26:50;;;;;;;2.33;0.90;;;10.50;99.90;;;;;;5060326;28;20182;-83
2023/01/12 10:29:16;;;;;;;8.60;0.80;;;10.50;99.90;;;;;;5059800;28;20174;-83
2023/01/12 10:31:41;;;;;;;4.67;0.87;;;10.50;99.90;;;;;;5060488;28;20199;-83
2023/01/12 10:34:09;;;;;;;4.50;0.90;;;10.50;99.90;;;;;;5059335;28;20773;-83
2023/01/12 10:36:44;;;;;;;4.07;0.70;;;10.50;99.90;;;;;;5059974;28;20187;-84
2023/01/12 10:39:30;;;;;;;4.40;1.00;;;10.50;99.90;;;;;;5058559;28;20171;-83
2023/01/12 10:45:30;;;;;;;2.17;0.80;;;10.50;99.90;;;;;;5060898;28;20583;-84
2023/01/12 10:47:56;;;;;;;3.43;1.43;;;10.50;99.90;;;;;;5058814;28;20757;-83
2023/01/12 10:50:31;;;;;;;3.63;0.90;;;10.50;99.90;;;;;;5059649;28;20207;-83
2023/01/12 10:53:11;;;;;;;2.37;0.80;;;10.40;99.90;;;;;;5059633;28;20186;-83
2023/01/12 10:55:39;;;;;;;2.17;0.60;;;10.40;99.90;;;;;;5060285;28;20533;-83
2023/01/12 10:58:15;;;;;;;2.57;0.70;;;10.40;99.90;;;;;;5059202;28;20247;-83
2023/01/12 11:00:47;;;;;;;1.20;0.60;;;10.40;99.90;;;;;;5059777;28;20217;-83
2023/01/12 11:03:32;;;;;;;4.50;1.13;;;10.40;99.90;;;;;;5061499;28;20202;-83
2023/01/12 11:06:27;;;;;;;4.33;0.90;;;10.50;99.90;;;;;;5061348;28;20171;-83
2023/01/12 11:08:54;;;;;;;5.87;1.13;;;10.60;99.90;;;;;;5061696;28;20171;-83
2023/01/12 11:11:30;;;;;;;1.13;0.67;;;10.60;99.90;;;;;;5062371;28;20199;-84
2023/01/12 11:14:02;;;;;;;3.20;1.00;;;10.70;99.90;;;;;;5065129;28;20171;-84
2023/01/12 11:16:37;;;;;;;2.13;0.50;;;10.70;99.90;;;;;;5066953;28;20171;-83
2023/01/12 11:19:15;;;;;;;2.43;0.80;;;10.70;99.90;;;;;;5069166;28;20610;-83
2023/01/12 11:21:45;;;;;;;4.57;0.87;;;10.70;99.90;;;;;;5068707;28;20215;-84
2023/01/12 11:24:56;;;;;;;2.37;0.57;;;10.70;99.90;;;;;;5064257;28;20191;-83
2023/01/12 11:27:25;;;;;;;2.87;1.23;;;10.70;99.90;;;;;;4986269;28;20174;-83
2023/01/12 11:30:03;;;;;;;3.50;0.70;;;10.70;99.90;;;;;;5048501;28;20179;-83
2023/01/12 11:32:42;;;;;;;2.17;0.60;;;10.60;99.90;;;;;;5063024;28;20569;-83
2023/01/12 11:35:28;;;;;;;1.57;0.60;;;10.70;99.90;;;;;;5063727;28;20163;-83
2023/01/12 11:37:57;;;;;;;2.03;0.60;;;10.70;99.90;;;;;;5047943;28;20187;-83
2023/01/12 11:40:32;;;;;;;2.30;0.70;;;10.70;99.90;;;;;;5062895;28;20258;-83
2023/01/12 11:46:14;;;;;;;4.00;0.70;;;10.70;99.90;;;;;;5063896;28;20191;-84
2023/01/12 11:48:48;;;;;;;1.97;0.63;;;10.60;99.90;;;;;;5064108;28;20160;-84
2023/01/12 11:51:14;;;;;;;1.93;0.60;;;10.70;99.90;;;;;;5062971;28;20198;-84
2023/01/12 11:53:40;;;;;;;5.67;0.77;;;10.70;99.90;;;;;;5062898;28;20598;-83
2023/01/12 11:56:26;;;;;;;1.47;0.60;;;10.70;99.90;;;;;;5062055;28;20172;-83
2023/01/12 11:59:10;;;;;;;3.90;0.93;;;10.80;99.90;;;;;;5063318;28;20191;-83
2023/01/12 12:02:00;;;;;;;2.17;0.77;;;10.80;99.90;;;;;;5063785;28;20203;-83
2023/01/12 12:04:35;;;;;;;1.20;0.70;;;10.80;99.90;;;;;;5062261;28;20213;-84
2023/01/12 12:07:17;;;;;;;4.13;0.97;;;10.80;99.90;;;;;;5062269;28;20163;-83
2023/01/12 12:09:57;;;;;;;1.67;0.70;;;10.70;99.90;;;;;;5062178;28;20236;-83
2023/01/12 12:12:57;;;;;;;1.20;0.63;;;10.80;99.90;;;;;;5064036;28;20164;-83
2023/01/12 12:15:37;;;;;;;1.93;0.60;;;10.80;99.90;;;;;;5063663;28;20197;-83
2023/01/12 12:18:23;;;;;;;6.80;0.90;;;10.70;99.90;;;;;;5063372;28;20187;-84
2023/01/12 12:21:15;;;;;;;3.97;0.97;;;10.70;99.90;;;;;;5063017;28;20215;-83
2023/01/12 12:23:43;;;;;;;6.17;0.90;;;10.60;99.90;;;;;;5061505;28;20167;-83
2023/01/12 12:26:27;;;;;;;1.33;0.63;;;10.70;99.90;;;;;;5061251;28;20180;-83
2023/01/12 12:29:51;;;;;;;1.47;0.80;;;10.70;99.90;;;;;;5061913;28;20163;-83
2023/01/12 12:32:33;;;;;;;2.03;0.77;;;10.70;99.90;;;;;;5061209;28;20195;-83
2023/01/12 12:35:20;;;;;;;1.10;0.50;;;10.60;99.90;;;;;;5062181;28;20164;-84
2023/01/12 12:38:09;;;;;;;2.33;0.90;;;10.60;99.90;;;;;;5061785;28;20168;-83
2023/01/12 12:46:42;;;;;;;1.27;0.70;;;10.60;99.90;;;;;;5062544;28;20167;-83
2023/01/12 12:49:12;;;;;;;3.30;0.80;;;10.70;99.90;;;;;;5060185;28;20160;-83
2023/01/12 12:51:39;;;;;;;2.03;0.73;;;10.70;99.90;;;;;;5059871;28;20577;-84
2023/01/12 12:54:13;;;;;;;2.33;1.37;;;10.80;99.90;;;;;;5057747;28;20176;-84
2023/01/12 12:56:39;;;;;;;1.73;0.77;;;10.80;99.90;;;;;;5059898;28;20301;-84
2023/01/12 12:59:06;;;;;;;4.70;0.73;;;10.80;99.90;;;;;;5059927;28;20234;-83
2023/01/12 13:01:31;;;;;;;2.77;0.60;;;10.80;99.90;;;;;;5061316;28;20214;-84
2023/01/12 13:03:59;;;;;;;1.93;0.70;;;10.80;99.90;;;;;;5060736;28;20176;-83
2023/01/12 13:06:32;;;;;;;2.03;0.70;;;10.80;99.90;;;;;;5061478;28;20164;-84
2023/01/12 13:09:19;;;;;;;2.00;0.60;;;10.80;99.90;;;;;;5059615;28;20651;-84
2023/01/12 13:11:46;;;;;;;2.87;0.60;;;10.80;99.90;;;;;;5045967;28;20241;-83
2023/01/12 13:14:28;;;;;;;1.93;0.60;;;10.80;99.90;;;;;;5059874;28;20179;-84
2023/01/12 13:16:59;;;;;;;1.03;0.40;;;10.80;99.90;;;;;;5060062;28;20238;-84
2023/01/12 13:19:43;;;;;;;0.70;0.50;;;10.80;99.90;;;;;;5060209;28;20203;-83
2023/01/12 13:22:41;;;;;;;2.70;0.60;;;10.80;99.90;;;;;;5060224;28;20215;-84
2023/01/12 13:25:36;;;;;;;1.60;0.50;;;10.80;99.90;;;;;;5060465;28;20171;-83
2023/01/12 13:28:01;;;;;;;1.10;0.50;;;10.80;99.90;;;;;;5059210;28;20206;-83
2023/01/12 13:30:30;;;;;;;1.03;0.70;;;10.80;99.90;;;;;;5059840;28;20287;-83
2023/01/12 13:32:58;;;;;;;2.23;0.57;;;10.80;99.90;;;;;;5060757;28;20168;-84
2023/01/12 13:35:46;;;;;;;2.40;0.63;;;10.80;99.90;;;;;;5058645;28;20184;-83
2023/01/12 13:38:42;;;;;;;1.50;0.87;;;10.80;99.90;;;;;;5060301;28;20203;-84
2023/01/12 13:41:14;;;;;;;6.20;0.73;;;10.80;99.90;;;;;;5059495;28;20238;-83
2023/01/12 13:43:52;;;;;;;3.00;0.80;;;10.90;99.90;;;;;;5059112;28;20222;-83
2023/01/12 13:46:31;;;;;;;2.30;0.60;;;10.70;99.90;;;;;;5059583;28;20647;-83
2023/01/12 13:48:57;;;;;;;1.50;0.63;;;10.70;99.90;;;;;;5060124;28;20252;-83
2023/01/12 13:51:38;;;;;;;1.00;0.80;;;10.90;99.90;;;;;;5059875;28;20743;-83
2023/01/12 13:54:14;;;;;;;1.03;0.50;;;10.70;99.90;;;;;;5060760;28;20171;-83
2023/01/12 13:56:41;;;;;;;1.77;0.60;;;10.70;99.90;;;;;;5059581;28;20178;-83
2023/01/12 13:59:16;;;;;;;2.10;0.63;;;10.70;99.90;;;;;;5060512;28;20229;-83
2023/01/12 14:01:44;;;;;;;2.23;0.73;;;10.60;99.90;;;;;;5058327;28;20211;-83